sensor_id;sensor_type;location;lat;lon;timestamp;P1;durP1;ratioP1;P2;durP2;ratioP2
19776;SDS011;10047;42.490;26.012;2023-06-22T00:01:49;19.38;;;13.43;;
19776;SDS011;10047;42.490;26.012;2023-06-22T00:04:14;14.68;;;13.18;;
19776;SDS011;10047;42.490;26.012;2023-06-22T00:06:40;15.43;;;13.70;;
19776;SDS011;10047;42.490;26.012;2023-06-22T00:09:05;15.95;;;13.63;;
19776;SDS011;10047;42.490;26.012;2023-06-22T00:11:32;14.98;;;13.35;;
19776;SDS011;10047;42.490;26.012;2023-06-22T00:13:58;16.45;;;13.10;;
19776;SDS011;10047;42.490;26.012;2023-06-22T00:16:24;14.15;;;12.75;;
19776;SDS011;10047;42.490;26.012;2023-06-22T00:18:50;16.55;;;13.35;;
19776;SDS011;10047;42.490;26.012;2023-06-22T00:21:15;15.32;;;13.27;;
19776;SDS011;10047;42.490;26.012;2023-06-22T00:23:41;14.50;;;12.88;;
19776;SDS011;10047;42.490;26.012;2023-06-22T00:26:06;15.35;;;13.82;;
19776;SDS011;10047;42.490;26.012;2023-06-22T00:28:32;14.15;;;12.75;;
19776;SDS011;10047;42.490;26.012;2023-06-22T00:30:57;17.85;;;13.73;;
19776;SDS011;10047;42.490;26.012;2023-06-22T00:33:23;14.07;;;12.57;;
19776;SDS011;10047;42.490;26.012;2023-06-22T00:35:48;15.15;;;12.73;;
19776;SDS011;10047;42.490;26.012;2023-06-22T00:38:17;12.93;;;11.63;;
19776;SDS011;10047;42.490;26.012;2023-06-22T00:40:43;13.68;;;12.27;;
19776;SDS011;10047;42.490;26.012;2023-06-22T00:43:09;12.85;;;11.32;;
19776;SDS011;10047;42.490;26.012;2023-06-22T00:45:34;13.40;;;11.63;;
19776;SDS011;10047;42.490;26.012;2023-06-22T00:47:59;12.68;;;11.20;;
19776;SDS011;10047;42.490;26.012;2023-06-22T00:50:27;13.05;;;11.40;;
19776;SDS011;10047;42.490;26.012;2023-06-22T00:52:58;14.35;;;12.65;;
19776;SDS011;10047;42.490;26.012;2023-06-22T00:55:26;13.00;;;11.60;;
19776;SDS011;10047;42.490;26.012;2023-06-22T00:57:52;13.32;;;11.98;;
19776;SDS011;10047;42.490;26.012;2023-06-22T01:00:22;13.20;;;11.80;;
19776;SDS011;10047;42.490;26.012;2023-06-22T01:02:49;12.57;;;10.88;;
19776;SDS011;10047;42.490;26.012;2023-06-22T01:05:17;12.70;;;11.10;;
19776;SDS011;10047;42.490;26.012;2023-06-22T01:07:48;12.68;;;11.38;;
19776;SDS011;10047;42.490;26.012;2023-06-22T01:10:22;13.30;;;12.00;;
19776;SDS011;10047;42.490;26.012;2023-06-22T01:12:58;13.30;;;10.73;;
19776;SDS011;10047;42.490;26.012;2023-06-22T01:15:49;12.90;;;11.50;;
19776;SDS011;10047;42.490;26.012;2023-06-22T01:18:21;13.77;;;11.20;;
19776;SDS011;10047;42.490;26.012;2023-06-22T01:20:51;13.73;;;10.95;;
19776;SDS011;10047;42.490;26.012;2023-06-22T01:28:48;14.65;;;11.65;;
19776;SDS011;10047;42.490;26.012;2023-06-22T01:31:16;12.95;;;11.20;;
19776;SDS011;10047;42.490;26.012;2023-06-22T01:33:45;13.02;;;11.68;;
19776;SDS011;10047;42.490;26.012;2023-06-22T01:36:15;12.90;;;11.63;;
19776;SDS011;10047;42.490;26.012;2023-06-22T01:38:42;11.93;;;10.73;;
19776;SDS011;10047;42.490;26.012;2023-06-22T01:41:09;13.77;;;11.40;;
19776;SDS011;10047;42.490;26.012;2023-06-22T01:43:36;15.80;;;12.93;;
19776;SDS011;10047;42.490;26.012;2023-06-22T01:46:02;14.32;;;12.50;;
19776;SDS011;10047;42.490;26.012;2023-06-22T01:48:28;13.55;;;12.15;;
19776;SDS011;10047;42.490;26.012;2023-06-22T01:50:54;12.68;;;11.30;;
19776;SDS011;10047;42.490;26.012;2023-06-22T01:53:23;13.55;;;12.25;;
19776;SDS011;10047;42.490;26.012;2023-06-22T01:55:49;14.43;;;11.93;;
19776;SDS011;10047;42.490;26.012;2023-06-22T01:58:14;14.43;;;11.65;;
19776;SDS011;10047;42.490;26.012;2023-06-22T02:00:42;13.50;;;11.13;;
19776;SDS011;10047;42.490;26.012;2023-06-22T02:03:14;12.98;;;11.68;;
19776;SDS011;10047;42.490;26.012;2023-06-22T02:08:31;14.23;;;12.73;;
19776;SDS011;10047;42.490;26.012;2023-06-22T02:11:02;13.32;;;11.93;;
19776;SDS011;10047;42.490;26.012;2023-06-22T02:13:28;15.13;;;11.82;;
19776;SDS011;10047;42.490;26.012;2023-06-22T02:15:55;12.88;;;11.48;;
19776;SDS011;10047;42.490;26.012;2023-06-22T02:18:21;14.23;;;12.38;;
19776;SDS011;10047;42.490;26.012;2023-06-22T02:20:46;14.05;;;11.63;;
19776;SDS011;10047;42.490;26.012;2023-06-22T02:23:12;12.73;;;11.35;;
19776;SDS011;10047;42.490;26.012;2023-06-22T02:25:37;13.52;;;11.40;;
19776;SDS011;10047;42.490;26.012;2023-06-22T02:28:03;15.05;;;11.38;;
19776;SDS011;10047;42.490;26.012;2023-06-22T02:30:29;13.25;;;11.30;;
19776;SDS011;10047;42.490;26.012;2023-06-22T02:32:54;14.32;;;12.27;;
19776;SDS011;10047;42.490;26.012;2023-06-22T02:35:27;15.50;;;10.77;;
19776;SDS011;10047;42.490;26.012;2023-06-22T02:37:56;12.98;;;11.57;;
19776;SDS011;10047;42.490;26.012;2023-06-22T02:40:25;14.55;;;12.77;;
19776;SDS011;10047;42.490;26.012;2023-06-22T02:42:51;13.63;;;12.20;;
19776;SDS011;10047;42.490;26.012;2023-06-22T02:45:16;15.75;;;13.00;;
19776;SDS011;10047;42.490;26.012;2023-06-22T02:47:42;18.73;;;13.20;;
19776;SDS011;10047;42.490;26.012;2023-06-22T02:50:08;15.93;;;12.95;;
19776;SDS011;10047;42.490;26.012;2023-06-22T02:52:33;14.02;;;12.00;;
19776;SDS011;10047;42.490;26.012;2023-06-22T02:54:59;16.52;;;13.27;;
19776;SDS011;10047;42.490;26.012;2023-06-22T02:57:24;18.15;;;13.88;;
19776;SDS011;10047;42.490;26.012;2023-06-22T02:59:50;20.55;;;14.35;;
19776;SDS011;10047;42.490;26.012;2023-06-22T03:02:15;19.60;;;14.48;;
19776;SDS011;10047;42.490;26.012;2023-06-22T03:04:41;20.05;;;14.80;;
19776;SDS011;10047;42.490;26.012;2023-06-22T03:07:07;16.23;;;13.85;;
19776;SDS011;10047;42.490;26.012;2023-06-22T03:09:32;18.48;;;15.13;;
19776;SDS011;10047;42.490;26.012;2023-06-22T03:11:58;18.17;;;14.55;;
19776;SDS011;10047;42.490;26.012;2023-06-22T03:14:23;21.17;;;15.45;;
19776;SDS011;10047;42.490;26.012;2023-06-22T03:16:49;27.70;;;15.90;;
19776;SDS011;10047;42.490;26.012;2023-06-22T03:19:14;20.13;;;14.95;;
19776;SDS011;10047;42.490;26.012;2023-06-22T03:21:40;17.60;;;15.05;;
19776;SDS011;10047;42.490;26.012;2023-06-22T03:24:06;16.90;;;14.50;;
19776;SDS011;10047;42.490;26.012;2023-06-22T03:26:32;15.27;;;13.68;;
19776;SDS011;10047;42.490;26.012;2023-06-22T03:28:57;20.08;;;14.95;;
19776;SDS011;10047;42.490;26.012;2023-06-22T03:31:23;17.52;;;14.73;;
19776;SDS011;10047;42.490;26.012;2023-06-22T03:33:48;20.73;;;15.68;;
19776;SDS011;10047;42.490;26.012;2023-06-22T03:36:15;19.42;;;15.48;;
19776;SDS011;10047;42.490;26.012;2023-06-22T03:38:44;18.63;;;14.98;;
19776;SDS011;10047;42.490;26.012;2023-06-22T03:41:13;21.60;;;16.50;;
19776;SDS011;10047;42.490;26.012;2023-06-22T03:43:39;19.33;;;16.63;;
19776;SDS011;10047;42.490;26.012;2023-06-22T03:46:04;26.55;;;16.35;;
19776;SDS011;10047;42.490;26.012;2023-06-22T03:48:30;15.73;;;14.13;;
19776;SDS011;10047;42.490;26.012;2023-06-22T03:50:55;19.98;;;14.75;;
19776;SDS011;10047;42.490;26.012;2023-06-22T03:53:21;15.70;;;14.10;;
19776;SDS011;10047;42.490;26.012;2023-06-22T03:55:52;20.05;;;14.40;;
19776;SDS011;10047;42.490;26.012;2023-06-22T03:58:18;21.02;;;14.30;;
19776;SDS011;10047;42.490;26.012;2023-06-22T04:00:48;18.15;;;13.75;;
19776;SDS011;10047;42.490;26.012;2023-06-22T04:03:18;14.15;;;12.23;;
19776;SDS011;10047;42.490;26.012;2023-06-22T04:05:45;13.93;;;12.52;;
19776;SDS011;10047;42.490;26.012;2023-06-22T04:08:12;13.70;;;12.30;;
19776;SDS011;10047;42.490;26.012;2023-06-22T04:10:38;13.23;;;11.90;;
19776;SDS011;10047;42.490;26.012;2023-06-22T04:13:03;13.00;;;11.70;;
19776;SDS011;10047;42.490;26.012;2023-06-22T04:15:29;13.02;;;11.65;;
19776;SDS011;10047;42.490;26.012;2023-06-22T04:17:54;13.52;;;12.10;;
19776;SDS011;10047;42.490;26.012;2023-06-22T04:20:21;14.05;;;12.32;;
19776;SDS011;10047;42.490;26.012;2023-06-22T04:22:47;17.08;;;13.23;;
19776;SDS011;10047;42.490;26.012;2023-06-22T04:25:12;17.25;;;14.95;;
19776;SDS011;10047;42.490;26.012;2023-06-22T04:27:37;18.13;;;14.02;;
19776;SDS011;10047;42.490;26.012;2023-06-22T04:30:05;17.92;;;13.60;;
19776;SDS011;10047;42.490;26.012;2023-06-22T04:32:32;16.98;;;13.93;;
19776;SDS011;10047;42.490;26.012;2023-06-22T04:35:04;16.67;;;13.63;;
19776;SDS011;10047;42.490;26.012;2023-06-22T04:37:31;15.55;;;13.43;;
19776;SDS011;10047;42.490;26.012;2023-06-22T04:39:57;19.52;;;14.15;;
19776;SDS011;10047;42.490;26.012;2023-06-22T04:42:22;15.77;;;13.32;;
19776;SDS011;10047;42.490;26.012;2023-06-22T04:44:47;15.48;;;13.23;;
19776;SDS011;10047;42.490;26.012;2023-06-22T04:47:13;15.80;;;13.80;;
19776;SDS011;10047;42.490;26.012;2023-06-22T04:49:38;19.85;;;13.00;;
19776;SDS011;10047;42.490;26.012;2023-06-22T04:52:06;14.38;;;12.77;;
19776;SDS011;10047;42.490;26.012;2023-06-22T04:54:34;17.77;;;13.52;;
19776;SDS011;10047;42.490;26.012;2023-06-22T04:57:01;14.18;;;12.70;;
19776;SDS011;10047;42.490;26.012;2023-06-22T04:59:28;13.70;;;12.25;;
19776;SDS011;10047;42.490;26.012;2023-06-22T05:04:21;13.90;;;12.43;;
19776;SDS011;10047;42.490;26.012;2023-06-22T05:06:50;17.02;;;13.82;;
19776;SDS011;10047;42.490;26.012;2023-06-22T05:09:16;17.45;;;15.45;;
19776;SDS011;10047;42.490;26.012;2023-06-22T05:11:42;18.35;;;16.45;;
19776;SDS011;10047;42.490;26.012;2023-06-22T05:14:08;20.08;;;18.05;;
19776;SDS011;10047;42.490;26.012;2023-06-22T05:16:33;18.17;;;16.40;;
19776;SDS011;10047;42.490;26.012;2023-06-22T05:19:00;15.80;;;14.02;;
19776;SDS011;10047;42.490;26.012;2023-06-22T05:21:28;16.02;;;14.38;;
19776;SDS011;10047;42.490;26.012;2023-06-22T05:23:53;15.32;;;13.77;;
19776;SDS011;10047;42.490;26.012;2023-06-22T05:26:20;16.67;;;13.55;;
19776;SDS011;10047;42.490;26.012;2023-06-22T05:28:47;14.25;;;12.30;;
19776;SDS011;10047;42.490;26.012;2023-06-22T05:31:13;14.48;;;12.82;;
19776;SDS011;10047;42.490;26.012;2023-06-22T05:33:40;17.10;;;15.27;;
19776;SDS011;10047;42.490;26.012;2023-06-22T05:36:09;16.75;;;14.35;;
19776;SDS011;10047;42.490;26.012;2023-06-22T05:38:35;16.85;;;15.20;;
19776;SDS011;10047;42.490;26.012;2023-06-22T05:41:01;17.45;;;14.13;;
19776;SDS011;10047;42.490;26.012;2023-06-22T05:43:27;16.05;;;14.05;;
19776;SDS011;10047;42.490;26.012;2023-06-22T05:45:52;16.00;;;13.82;;
19776;SDS011;10047;42.490;26.012;2023-06-22T05:48:18;14.63;;;13.13;;
19776;SDS011;10047;42.490;26.012;2023-06-22T05:50:43;16.73;;;13.73;;
19776;SDS011;10047;42.490;26.012;2023-06-22T05:53:09;16.67;;;13.65;;
19776;SDS011;10047;42.490;26.012;2023-06-22T05:55:34;14.75;;;13.25;;
19776;SDS011;10047;42.490;26.012;2023-06-22T05:58:00;16.08;;;12.88;;
19776;SDS011;10047;42.490;26.012;2023-06-22T06:00:25;17.50;;;13.48;;
19776;SDS011;10047;42.490;26.012;2023-06-22T06:02:51;15.65;;;12.52;;
19776;SDS011;10047;42.490;26.012;2023-06-22T06:05:16;13.20;;;11.90;;
19776;SDS011;10047;42.490;26.012;2023-06-22T06:07:42;14.55;;;12.10;;
19776;SDS011;10047;42.490;26.012;2023-06-22T06:10:08;13.82;;;12.05;;
19776;SDS011;10047;42.490;26.012;2023-06-22T06:12:34;13.38;;;12.05;;
19776;SDS011;10047;42.490;26.012;2023-06-22T06:15:00;14.02;;;12.68;;
19776;SDS011;10047;42.490;26.012;2023-06-22T06:17:26;14.30;;;12.80;;
19776;SDS011;10047;42.490;26.012;2023-06-22T06:19:51;13.52;;;12.18;;
19776;SDS011;10047;42.490;26.012;2023-06-22T06:22:17;15.88;;;12.70;;
19776;SDS011;10047;42.490;26.012;2023-06-22T06:24:44;13.77;;;12.45;;
19776;SDS011;10047;42.490;26.012;2023-06-22T06:27:10;14.48;;;12.75;;
19776;SDS011;10047;42.490;26.012;2023-06-22T06:29:36;13.02;;;11.73;;
19776;SDS011;10047;42.490;26.012;2023-06-22T06:32:01;14.40;;;12.10;;
19776;SDS011;10047;42.490;26.012;2023-06-22T06:34:28;13.65;;;12.23;;
19776;SDS011;10047;42.490;26.012;2023-06-22T06:36:54;12.30;;;11.05;;
19776;SDS011;10047;42.490;26.012;2023-06-22T06:39:19;12.32;;;11.02;;
19776;SDS011;10047;42.490;26.012;2023-06-22T06:41:45;14.02;;;11.50;;
19776;SDS011;10047;42.490;26.012;2023-06-22T06:44:11;12.57;;;11.18;;
19776;SDS011;10047;42.490;26.012;2023-06-22T06:46:36;13.43;;;11.98;;
19776;SDS011;10047;42.490;26.012;2023-06-22T06:49:02;14.77;;;11.38;;
19776;SDS011;10047;42.490;26.012;2023-06-22T06:51:28;12.75;;;11.30;;
19776;SDS011;10047;42.490;26.012;2023-06-22T06:53:53;12.80;;;11.50;;
19776;SDS011;10047;42.490;26.012;2023-06-22T06:56:19;11.63;;;10.52;;
19776;SDS011;10047;42.490;26.012;2023-06-22T06:58:46;12.48;;;11.38;;
19776;SDS011;10047;42.490;26.012;2023-06-22T07:01:11;13.30;;;12.00;;
19776;SDS011;10047;42.490;26.012;2023-06-22T07:03:37;12.85;;;11.65;;
19776;SDS011;10047;42.490;26.012;2023-06-22T07:06:03;13.40;;;12.20;;
19776;SDS011;10047;42.490;26.012;2023-06-22T07:08:29;13.50;;;11.93;;
19776;SDS011;10047;42.490;26.012;2023-06-22T07:10:54;12.85;;;11.68;;
19776;SDS011;10047;42.490;26.012;2023-06-22T07:13:19;10.93;;;9.93;;
19776;SDS011;10047;42.490;26.012;2023-06-22T07:15:45;11.32;;;10.32;;
19776;SDS011;10047;42.490;26.012;2023-06-22T07:18:10;8.77;;;7.97;;
19776;SDS011;10047;42.490;26.012;2023-06-22T07:20:36;10.88;;;8.45;;
19776;SDS011;10047;42.490;26.012;2023-06-22T07:23:01;9.27;;;8.30;;
19776;SDS011;10047;42.490;26.012;2023-06-22T07:25:28;9.65;;;8.02;;
19776;SDS011;10047;42.490;26.012;2023-06-22T07:28:01;10.18;;;9.25;;
19776;SDS011;10047;42.490;26.012;2023-06-22T07:30:28;10.00;;;9.10;;
19776;SDS011;10047;42.490;26.012;2023-06-22T07:32:54;14.40;;;8.93;;
19776;SDS011;10047;42.490;26.012;2023-06-22T07:35:20;9.98;;;9.07;;
19776;SDS011;10047;42.490;26.012;2023-06-22T07:37:45;9.95;;;9.07;;
19776;SDS011;10047;42.490;26.012;2023-06-22T07:40:11;10.05;;;9.07;;
19776;SDS011;10047;42.490;26.012;2023-06-22T07:42:36;10.27;;;9.27;;
19776;SDS011;10047;42.490;26.012;2023-06-22T07:47:53;15.38;;;9.60;;
19776;SDS011;10047;42.490;26.012;2023-06-22T07:50:18;15.32;;;9.10;;
19776;SDS011;10047;42.490;26.012;2023-06-22T07:52:43;10.88;;;8.98;;
19776;SDS011;10047;42.490;26.012;2023-06-22T07:55:09;10.00;;;9.00;;
19776;SDS011;10047;42.490;26.012;2023-06-22T07:57:34;11.40;;;9.30;;
19776;SDS011;10047;42.490;26.012;2023-06-22T08:00:01;11.65;;;8.77;;
19776;SDS011;10047;42.490;26.012;2023-06-22T08:02:48;9.80;;;8.93;;
19776;SDS011;10047;42.490;26.012;2023-06-22T08:05:14;16.80;;;10.68;;
19776;SDS011;10047;42.490;26.012;2023-06-22T08:07:40;23.60;;;11.60;;
19776;SDS011;10047;42.490;26.012;2023-06-22T08:10:09;20.20;;;11.88;;
19776;SDS011;10047;42.490;26.012;2023-06-22T08:12:36;9.07;;;8.23;;
19776;SDS011;10047;42.490;26.012;2023-06-22T08:15:02;9.20;;;8.40;;
19776;SDS011;10047;42.490;26.012;2023-06-22T08:20:17;11.25;;;8.13;;
19776;SDS011;10047;42.490;26.012;2023-06-22T08:22:42;8.73;;;7.85;;
19776;SDS011;10047;42.490;26.012;2023-06-22T08:25:09;7.82;;;7.13;;
19776;SDS011;10047;42.490;26.012;2023-06-22T08:27:35;8.55;;;7.55;;
19776;SDS011;10047;42.490;26.012;2023-06-22T08:30:01;10.73;;;8.93;;
19776;SDS011;10047;42.490;26.012;2023-06-22T08:32:27;10.60;;;9.50;;
19776;SDS011;10047;42.490;26.012;2023-06-22T08:34:53;10.50;;;8.50;;
19776;SDS011;10047;42.490;26.012;2023-06-22T08:37:19;9.93;;;8.85;;
19776;SDS011;10047;42.490;26.012;2023-06-22T08:39:46;9.38;;;8.45;;
19776;SDS011;10047;42.490;26.012;2023-06-22T08:42:12;10.02;;;8.25;;
19776;SDS011;10047;42.490;26.012;2023-06-22T08:44:37;9.00;;;8.20;;
19776;SDS011;10047;42.490;26.012;2023-06-22T08:47:03;9.70;;;8.80;;
19776;SDS011;10047;42.490;26.012;2023-06-22T08:51:59;11.27;;;9.00;;
19776;SDS011;10047;42.490;26.012;2023-06-22T08:54:24;8.98;;;8.07;;
19776;SDS011;10047;42.490;26.012;2023-06-22T08:56:50;9.05;;;8.20;;
19776;SDS011;10047;42.490;26.012;2023-06-22T08:59:15;9.25;;;8.35;;
19776;SDS011;10047;42.490;26.012;2023-06-22T09:01:40;9.60;;;8.57;;
19776;SDS011;10047;42.490;26.012;2023-06-22T09:04:13;8.75;;;7.90;;
19776;SDS011;10047;42.490;26.012;2023-06-22T09:06:39;9.75;;;8.30;;
19776;SDS011;10047;42.490;26.012;2023-06-22T09:09:09;10.80;;;8.23;;
19776;SDS011;10047;42.490;26.012;2023-06-22T09:11:35;12.80;;;8.77;;
19776;SDS011;10047;42.490;26.012;2023-06-22T09:14:00;9.35;;;8.55;;
19776;SDS011;10047;42.490;26.012;2023-06-22T09:16:26;9.10;;;7.90;;
19776;SDS011;10047;42.490;26.012;2023-06-22T09:18:51;8.90;;;8.00;;
19776;SDS011;10047;42.490;26.012;2023-06-22T09:21:17;9.88;;;8.55;;
19776;SDS011;10047;42.490;26.012;2023-06-22T09:23:42;9.32;;;8.43;;
19776;SDS011;10047;42.490;26.012;2023-06-22T09:26:08;8.75;;;7.95;;
19776;SDS011;10047;42.490;26.012;2023-06-22T09:28:33;9.20;;;8.23;;
19776;SDS011;10047;42.490;26.012;2023-06-22T09:30:59;10.40;;;8.38;;
19776;SDS011;10047;42.490;26.012;2023-06-22T09:33:25;8.98;;;8.18;;
19776;SDS011;10047;42.490;26.012;2023-06-22T09:35:51;10.35;;;8.10;;
19776;SDS011;10047;42.490;26.012;2023-06-22T09:38:17;9.60;;;8.60;;
19776;SDS011;10047;42.490;26.012;2023-06-22T09:40:42;9.20;;;8.40;;
19776;SDS011;10047;42.490;26.012;2023-06-22T09:43:08;9.63;;;8.18;;
19776;SDS011;10047;42.490;26.012;2023-06-22T09:45:33;9.38;;;7.93;;
19776;SDS011;10047;42.490;26.012;2023-06-22T09:47:59;9.20;;;8.35;;
19776;SDS011;10047;42.490;26.012;2023-06-22T09:50:24;12.52;;;8.38;;
19776;SDS011;10047;42.490;26.012;2023-06-22T09:52:50;9.40;;;8.40;;
19776;SDS011;10047;42.490;26.012;2023-06-22T09:55:19;10.52;;;8.23;;
19776;SDS011;10047;42.490;26.012;2023-06-22T09:57:48;12.30;;;9.05;;
19776;SDS011;10047;42.490;26.012;2023-06-22T10:00:14;10.85;;;8.40;;
19776;SDS011;10047;42.490;26.012;2023-06-22T10:02:42;9.40;;;7.68;;
19776;SDS011;10047;42.490;26.012;2023-06-22T10:05:07;9.13;;;8.23;;
19776;SDS011;10047;42.490;26.012;2023-06-22T10:07:33;8.77;;;7.90;;
19776;SDS011;10047;42.490;26.012;2023-06-22T10:09:59;9.30;;;8.10;;
19776;SDS011;10047;42.490;26.012;2023-06-22T10:12:25;11.05;;;8.90;;
19776;SDS011;10047;42.490;26.012;2023-06-22T10:14:52;10.02;;;8.90;;
19776;SDS011;10047;42.490;26.012;2023-06-22T10:17:18;9.60;;;8.45;;
19776;SDS011;10047;42.490;26.012;2023-06-22T10:19:43;10.98;;;8.45;;
19776;SDS011;10047;42.490;26.012;2023-06-22T10:22:08;10.65;;;8.23;;
19776;SDS011;10047;42.490;26.012;2023-06-22T10:24:34;9.43;;;8.48;;
19776;SDS011;10047;42.490;26.012;2023-06-22T10:26:59;10.65;;;8.45;;
19776;SDS011;10047;42.490;26.012;2023-06-22T10:29:24;9.93;;;8.90;;
19776;SDS011;10047;42.490;26.012;2023-06-22T10:31:50;10.00;;;9.00;;
19776;SDS011;10047;42.490;26.012;2023-06-22T10:34:15;9.90;;;8.45;;
19776;SDS011;10047;42.490;26.012;2023-06-22T10:36:42;9.02;;;8.23;;
19776;SDS011;10047;42.490;26.012;2023-06-22T10:39:08;8.88;;;8.00;;
19776;SDS011;10047;42.490;26.012;2023-06-22T10:41:33;9.32;;;8.52;;
19776;SDS011;10047;42.490;26.012;2023-06-22T10:43:59;9.07;;;8.13;;
19776;SDS011;10047;42.490;26.012;2023-06-22T10:46:25;11.27;;;8.05;;
19776;SDS011;10047;42.490;26.012;2023-06-22T10:48:51;9.35;;;8.55;;
19776;SDS011;10047;42.490;26.012;2023-06-22T10:51:19;9.77;;;8.80;;
19776;SDS011;10047;42.490;26.012;2023-06-22T10:53:44;10.35;;;9.00;;
19776;SDS011;10047;42.490;26.012;2023-06-22T10:56:10;9.90;;;8.93;;
19776;SDS011;10047;42.490;26.012;2023-06-22T10:58:35;9.65;;;8.73;;
19776;SDS011;10047;42.490;26.012;2023-06-22T11:01:01;9.55;;;8.73;;
19776;SDS011;10047;42.490;26.012;2023-06-22T11:03:27;9.70;;;8.73;;
19776;SDS011;10047;42.490;26.012;2023-06-22T11:05:53;11.38;;;8.60;;
19776;SDS011;10047;42.490;26.012;2023-06-22T11:08:18;15.82;;;11.55;;
19776;SDS011;10047;42.490;26.012;2023-06-22T11:10:44;11.85;;;10.20;;
19776;SDS011;10047;42.490;26.012;2023-06-22T11:13:09;9.25;;;8.35;;
19776;SDS011;10047;42.490;26.012;2023-06-22T11:15:35;9.63;;;8.70;;
19776;SDS011;10047;42.490;26.012;2023-06-22T11:18:01;9.32;;;8.52;;
19776;SDS011;10047;42.490;26.012;2023-06-22T11:20:26;9.77;;;8.70;;
19776;SDS011;10047;42.490;26.012;2023-06-22T11:22:52;9.60;;;8.63;;
19776;SDS011;10047;42.490;26.012;2023-06-22T11:25:17;9.65;;;8.50;;
19776;SDS011;10047;42.490;26.012;2023-06-22T11:27:43;9.73;;;8.35;;
19776;SDS011;10047;42.490;26.012;2023-06-22T11:30:08;8.60;;;7.90;;
19776;SDS011;10047;42.490;26.012;2023-06-22T11:32:34;9.15;;;8.23;;
19776;SDS011;10047;42.490;26.012;2023-06-22T11:35:00;11.90;;;8.48;;
19776;SDS011;10047;42.490;26.012;2023-06-22T11:37:25;8.88;;;8.02;;
19776;SDS011;10047;42.490;26.012;2023-06-22T11:39:51;8.38;;;7.45;;
19776;SDS011;10047;42.490;26.012;2023-06-22T11:42:16;8.73;;;8.02;;
19776;SDS011;10047;42.490;26.012;2023-06-22T11:44:42;8.35;;;7.55;;
19776;SDS011;10047;42.490;26.012;2023-06-22T11:47:08;10.70;;;8.27;;
19776;SDS011;10047;42.490;26.012;2023-06-22T11:49:34;8.90;;;8.00;;
19776;SDS011;10047;42.490;26.012;2023-06-22T11:51:59;10.07;;;8.00;;
19776;SDS011;10047;42.490;26.012;2023-06-22T11:54:25;8.82;;;8.00;;
19776;SDS011;10047;42.490;26.012;2023-06-22T11:56:50;8.60;;;7.90;;
19776;SDS011;10047;42.490;26.012;2023-06-22T11:59:16;10.32;;;8.30;;
19776;SDS011;10047;42.490;26.012;2023-06-22T12:01:41;10.02;;;8.38;;
19776;SDS011;10047;42.490;26.012;2023-06-22T12:04:06;9.02;;;8.10;;
19776;SDS011;10047;42.490;26.012;2023-06-22T12:06:32;8.88;;;8.05;;
19776;SDS011;10047;42.490;26.012;2023-06-22T12:08:58;11.25;;;9.00;;
19776;SDS011;10047;42.490;26.012;2023-06-22T12:11:24;9.50;;;8.57;;
19776;SDS011;10047;42.490;26.012;2023-06-22T12:13:49;8.77;;;7.97;;
19776;SDS011;10047;42.490;26.012;2023-06-22T12:16:15;9.07;;;8.18;;
19776;SDS011;10047;42.490;26.012;2023-06-22T12:18:41;11.73;;;8.63;;
19776;SDS011;10047;42.490;26.012;2023-06-22T12:21:07;9.63;;;8.68;;
19776;SDS011;10047;42.490;26.012;2023-06-22T12:23:32;8.75;;;7.95;;
19776;SDS011;10047;42.490;26.012;2023-06-22T12:25:58;8.43;;;7.63;;
19776;SDS011;10047;42.490;26.012;2023-06-22T12:28:25;8.82;;;7.90;;
19776;SDS011;10047;42.490;26.012;2023-06-22T12:30:50;7.88;;;7.22;;
19776;SDS011;10047;42.490;26.012;2023-06-22T12:33:15;8.60;;;7.70;;
19776;SDS011;10047;42.490;26.012;2023-06-22T12:35:41;8.07;;;7.32;;
19776;SDS011;10047;42.490;26.012;2023-06-22T12:38:06;7.97;;;7.28;;
19776;SDS011;10047;42.490;26.012;2023-06-22T12:40:33;8.48;;;6.70;;
19776;SDS011;10047;42.490;26.012;2023-06-22T12:42:58;8.40;;;7.20;;
19776;SDS011;10047;42.490;26.012;2023-06-22T12:45:24;8.25;;;7.50;;
19776;SDS011;10047;42.490;26.012;2023-06-22T12:47:50;7.68;;;6.85;;
19776;SDS011;10047;42.490;26.012;2023-06-22T12:50:15;8.00;;;7.18;;
19776;SDS011;10047;42.490;26.012;2023-06-22T12:52:41;8.35;;;7.55;;
19776;SDS011;10047;42.490;26.012;2023-06-22T12:55:07;8.63;;;7.20;;
19776;SDS011;10047;42.490;26.012;2023-06-22T12:57:33;8.50;;;7.60;;
19776;SDS011;10047;42.490;26.012;2023-06-22T12:59:58;8.77;;;7.90;;
19776;SDS011;10047;42.490;26.012;2023-06-22T13:02:25;9.20;;;7.60;;
19776;SDS011;10047;42.490;26.012;2023-06-22T13:04:51;8.13;;;7.35;;
19776;SDS011;10047;42.490;26.012;2023-06-22T13:07:16;10.50;;;8.02;;
19776;SDS011;10047;42.490;26.012;2023-06-22T13:09:41;7.97;;;7.28;;
19776;SDS011;10047;42.490;26.012;2023-06-22T13:12:07;8.95;;;7.07;;
19776;SDS011;10047;42.490;26.012;2023-06-22T13:14:33;7.68;;;6.85;;
19776;SDS011;10047;42.490;26.012;2023-06-22T13:16:58;7.85;;;7.15;;
19776;SDS011;10047;42.490;26.012;2023-06-22T13:19:23;9.35;;;7.47;;
19776;SDS011;10047;42.490;26.012;2023-06-22T13:21:49;9.70;;;7.30;;
19776;SDS011;10047;42.490;26.012;2023-06-22T13:24:15;7.82;;;7.13;;
19776;SDS011;10047;42.490;26.012;2023-06-22T13:26:41;9.02;;;7.32;;
19776;SDS011;10047;42.490;26.012;2023-06-22T13:29:06;8.13;;;7.28;;
19776;SDS011;10047;42.490;26.012;2023-06-22T13:31:32;7.78;;;7.03;;
19776;SDS011;10047;42.490;26.012;2023-06-22T13:33:57;8.57;;;7.25;;
19776;SDS011;10047;42.490;26.012;2023-06-22T13:36:23;7.80;;;6.68;;
19776;SDS011;10047;42.490;26.012;2023-06-22T13:38:48;7.53;;;6.85;;
19776;SDS011;10047;42.490;26.012;2023-06-22T13:41:14;7.93;;;7.22;;
19776;SDS011;10047;42.490;26.012;2023-06-22T13:43:39;9.05;;;7.60;;
19776;SDS011;10047;42.490;26.012;2023-06-22T13:46:04;7.95;;;7.25;;
19776;SDS011;10047;42.490;26.012;2023-06-22T13:48:30;7.65;;;6.78;;
19776;SDS011;10047;42.490;26.012;2023-06-22T13:50:55;7.93;;;7.15;;
19776;SDS011;10047;42.490;26.012;2023-06-22T13:53:37;7.93;;;7.00;;
19776;SDS011;10047;42.490;26.012;2023-06-22T13:56:03;8.10;;;7.43;;
19776;SDS011;10047;42.490;26.012;2023-06-22T13:58:28;7.85;;;7.15;;
19776;SDS011;10047;42.490;26.012;2023-06-22T14:00:54;7.68;;;7.07;;
19776;SDS011;10047;42.490;26.012;2023-06-22T14:03:19;8.52;;;7.47;;
19776;SDS011;10047;42.490;26.012;2023-06-22T14:05:45;7.90;;;7.20;;
19776;SDS011;10047;42.490;26.012;2023-06-22T14:08:11;7.57;;;6.97;;
19776;SDS011;10047;42.490;26.012;2023-06-22T14:10:36;7.68;;;7.07;;
19776;SDS011;10047;42.490;26.012;2023-06-22T14:13:02;7.70;;;7.10;;
19776;SDS011;10047;42.490;26.012;2023-06-22T14:15:29;7.68;;;7.07;;
19776;SDS011;10047;42.490;26.012;2023-06-22T14:17:55;7.32;;;6.60;;
19776;SDS011;10047;42.490;26.012;2023-06-22T14:20:20;8.38;;;6.90;;
19776;SDS011;10047;42.490;26.012;2023-06-22T14:22:46;10.38;;;7.25;;
19776;SDS011;10047;42.490;26.012;2023-06-22T14:25:11;12.70;;;7.45;;
19776;SDS011;10047;42.490;26.012;2023-06-22T14:27:36;7.75;;;7.15;;
19776;SDS011;10047;42.490;26.012;2023-06-22T14:30:02;7.53;;;6.82;;
19776;SDS011;10047;42.490;26.012;2023-06-22T14:32:29;8.23;;;7.50;;